Terminal Aerodrome Forecast
Issued by NWS

Home | Current Version | Previous Version | Text Only | Print | Product List | Glossary On
Versions: 1 2 3 4 5 6 7 8 9 10 11 12 13
000
FTUS42 KMLB 291742
TAFFPR
TAF
KFPR 291742Z 2918/3018 08013KT P6SM SCT025 SCT040
     FM300100 08006KT P6SM SCT035
     FM301400 10011KT P6SM SCT025
      TEMPO 3014/3016 BKN025=

USA.gov is the U.S. government's official web portal to all federal, state and local government web resources and services.